createdAt,value
2022-09-06T00:01:15.067Z,100.00
2022-09-06T00:03:41.732Z,100.00
2022-09-06T00:06:09.907Z,100.00
2022-09-06T00:08:36.613Z,100.00
2022-09-06T00:11:03.742Z,100.00
2022-09-06T00:13:30.391Z,100.00
2022-09-06T00:15:57.017Z,100.00
2022-09-06T00:18:23.670Z,100.00
2022-09-06T00:20:50.279Z,100.00
2022-09-06T00:23:16.926Z,100.00
2022-09-06T00:25:43.451Z,100.00
2022-09-06T00:28:09.989Z,100.00
2022-09-06T00:30:36.681Z,100.00
2022-09-06T00:33:03.226Z,100.00
2022-09-06T00:35:29.953Z,100.00
2022-09-06T00:37:57.629Z,100.00
2022-09-06T00:40:24.168Z,100.00
2022-09-06T00:42:50.826Z,100.00
2022-09-06T00:45:17.402Z,100.00
2022-09-06T00:47:44.346Z,100.00
2022-09-06T00:50:12.178Z,100.00
2022-09-06T00:52:39.713Z,100.00
2022-09-06T00:55:06.582Z,100.00
2022-09-06T00:57:33.497Z,100.00
2022-09-06T01:00:00.275Z,100.00
2022-09-06T01:02:26.967Z,100.00
2022-09-06T01:04:54.066Z,100.00
2022-09-06T01:07:39.367Z,100.00
2022-09-06T01:10:17.728Z,100.00
2022-09-06T01:13:03.030Z,100.00
2022-09-06T01:15:48.185Z,100.00
2022-09-06T01:18:33.618Z,100.00
2022-09-06T01:21:19.017Z,100.00
2022-09-06T01:24:04.441Z,100.00
2022-09-06T01:26:33.961Z,100.00
2022-09-06T01:29:00.898Z,100.00
2022-09-06T01:31:47.884Z,100.00
2022-09-06T01:34:35.311Z,100.00
2022-09-06T01:37:10.371Z,100.00
2022-09-06T01:39:38.063Z,100.00
2022-09-06T01:42:07.688Z,100.00
2022-09-06T01:44:35.809Z,100.00
2022-09-06T01:47:14.497Z,100.00
2022-09-06T01:49:43.783Z,100.00
2022-09-06T01:52:10.259Z,100.00
2022-09-06T01:54:36.743Z,100.00
2022-09-06T01:57:03.204Z,100.00
2022-09-06T01:59:41.600Z,100.00
2022-09-06T02:02:19.187Z,100.00
2022-09-06T02:04:48.077Z,100.00
2022-09-06T02:07:26.390Z,100.00
2022-09-06T02:09:56.084Z,100.00
2022-09-06T02:12:24.631Z,100.00
2022-09-06T02:14:55.948Z,100.00
2022-09-06T02:17:26.190Z,100.00
2022-09-06T02:19:55.588Z,100.00
2022-09-06T02:22:23.861Z,100.00
2022-09-06T02:24:52.734Z,100.00
2022-09-06T02:27:19.420Z,100.00
2022-09-06T02:29:46.126Z,100.00
2022-09-06T02:32:15.622Z,100.00
2022-09-06T02:34:43.229Z,100.00
2022-09-06T02:37:11.270Z,100.00
2022-09-06T02:39:38.481Z,100.00
2022-09-06T02:42:05.969Z,100.00
2022-09-06T02:44:32.826Z,100.00
2022-09-06T02:47:01.326Z,100.00
2022-09-06T02:49:27.810Z,100.00
2022-09-06T02:51:54.332Z,100.00
2022-09-06T02:54:20.917Z,100.00
2022-09-06T02:56:52.003Z,100.00
2022-09-06T02:59:18.846Z,100.00
2022-09-06T03:01:45.640Z,100.00
2022-09-06T03:04:12.302Z,100.00
2022-09-06T03:06:38.852Z,100.00
2022-09-06T03:09:05.382Z,100.00
2022-09-06T03:11:31.900Z,100.00
2022-09-06T03:13:58.404Z,100.00
2022-09-06T03:16:25.009Z,100.00
2022-09-06T03:18:51.586Z,100.00
2022-09-06T03:21:18.082Z,100.00
2022-09-06T03:23:45.892Z,100.00
2022-09-06T03:26:12.565Z,100.00
2022-09-06T03:28:39.517Z,100.00
2022-09-06T03:31:06.282Z,100.00
2022-09-06T03:33:32.891Z,100.00
2022-09-06T03:36:00.292Z,100.00
2022-09-06T03:38:28.025Z,100.00
2022-09-06T03:40:54.878Z,100.00
2022-09-06T03:43:23.000Z,100.00
2022-09-06T03:45:51.001Z,100.00
2022-09-06T03:48:18.461Z,100.00
2022-09-06T03:50:46.189Z,100.00
2022-09-06T03:53:12.876Z,100.00
2022-09-06T03:55:39.624Z,100.00
2022-09-06T03:58:06.140Z,100.00
2022-09-06T04:00:33.598Z,100.00
2022-09-06T04:03:01.848Z,100.00
2022-09-06T04:05:28.637Z,100.00
2022-09-06T04:07:55.127Z,100.00
2022-09-06T04:10:21.690Z,100.00
2022-09-06T04:12:48.275Z,100.00
2022-09-06T04:15:14.855Z,100.00
2022-09-06T04:17:45.865Z,100.00
2022-09-06T04:20:12.858Z,100.00
2022-09-06T04:22:39.395Z,100.00
2022-09-06T04:25:06.256Z,100.00
2022-09-06T04:27:33.138Z,100.00
2022-09-06T04:29:59.640Z,100.00
2022-09-06T04:32:26.201Z,100.00
2022-09-06T04:34:52.691Z,100.00
2022-09-06T04:37:20.095Z,100.00
2022-09-06T04:39:47.386Z,100.00
2022-09-06T04:42:14.014Z,100.00
2022-09-06T04:44:40.602Z,100.00
2022-09-06T04:47:12.664Z,100.00
2022-09-06T04:49:39.173Z,100.00
2022-09-06T04:52:05.696Z,100.00
2022-09-06T04:54:32.202Z,100.00
2022-09-06T04:56:58.713Z,100.00
2022-09-06T04:59:25.363Z,100.00
2022-09-06T05:01:51.924Z,100.00
2022-09-06T05:04:18.597Z,100.00
2022-09-06T05:06:45.547Z,100.00
2022-09-06T05:09:12.092Z,100.00
2022-09-06T05:11:38.587Z,100.00
2022-09-06T05:14:05.155Z,100.00
2022-09-06T05:16:31.683Z,100.00
2022-09-06T05:18:58.266Z,100.00
2022-09-06T05:21:24.899Z,100.00
2022-09-06T05:23:53.433Z,100.00
2022-09-06T05:26:23.122Z,100.00
2022-09-06T05:28:49.790Z,100.00
2022-09-06T05:31:29.970Z,100.00
2022-09-06T05:33:57.735Z,100.00
2022-09-06T05:36:24.898Z,100.00
2022-09-06T05:38:51.808Z,100.00
2022-09-06T05:41:18.667Z,100.00
2022-09-06T05:43:45.800Z,100.00
2022-09-06T05:46:12.815Z,100.00
2022-09-06T05:48:39.629Z,100.00
2022-09-06T05:51:12.846Z,100.00
2022-09-06T05:53:41.071Z,98.99
2022-09-06T05:56:08.118Z,100.00
2022-09-06T05:58:34.890Z,100.00
2022-09-06T06:01:27.507Z,100.00
2022-09-06T06:03:55.556Z,100.00
2022-09-06T06:06:22.499Z,100.00
2022-09-06T06:08:49.098Z,100.00
2022-09-06T06:11:16.277Z,100.00
2022-09-06T06:13:43.484Z,100.00
2022-09-06T06:16:11.449Z,100.00
2022-09-06T06:18:38.431Z,100.00
2022-09-06T06:21:08.001Z,100.00
2022-09-06T06:23:34.547Z,100.00
2022-09-06T06:26:01.077Z,100.00
2022-09-06T06:28:27.842Z,100.00
2022-09-06T06:30:54.571Z,100.00
2022-09-06T06:33:21.059Z,100.00
2022-09-06T06:35:57.577Z,100.00
2022-09-06T06:38:24.211Z,100.00
2022-09-06T06:40:53.156Z,100.00
2022-09-06T06:43:21.802Z,100.00
2022-09-06T06:45:49.970Z,100.00
2022-09-06T06:48:16.858Z,100.00
2022-09-06T06:50:43.424Z,100.00
2022-09-06T06:53:09.966Z,100.00
2022-09-06T06:55:36.494Z,100.00
2022-09-06T06:58:04.028Z,100.00
2022-09-06T07:00:30.622Z,100.00
2022-09-06T07:02:57.226Z,100.00
2022-09-06T07:08:10.783Z,97.75
2022-09-06T07:10:37.351Z,99.78
2022-09-06T07:13:04.345Z,97.50
2022-09-06T07:15:30.894Z,93.50
2022-09-06T07:17:57.773Z,88.85
2022-09-06T07:20:26.482Z,84.68
2022-09-06T07:25:52.106Z,88.80
2022-09-06T07:28:18.767Z,84.83
2022-09-06T07:30:45.700Z,81.92
2022-09-06T07:33:12.494Z,81.47
2022-09-06T07:35:39.001Z,82.71
2022-09-06T07:38:05.554Z,78.25
2022-09-06T07:40:32.220Z,80.48
2022-09-06T07:43:01.717Z,79.53
2022-09-06T07:45:28.246Z,80.74
2022-09-06T07:53:16.643Z,73.87
2022-09-06T07:55:46.313Z,75.54
2022-09-06T07:58:12.794Z,74.54
2022-09-06T08:00:41.223Z,75.03
2022-09-06T08:03:08.066Z,74.46
2022-09-06T08:11:07.701Z,75.64
2022-09-06T08:13:35.286Z,72.96
2022-09-06T08:16:02.657Z,72.94
2022-09-06T08:18:29.548Z,70.03
2022-09-06T08:20:56.186Z,68.75
2022-09-06T08:23:22.792Z,69.92
2022-09-06T08:25:56.846Z,70.90
2022-09-06T08:28:25.662Z,67.04
2022-09-06T08:30:55.249Z,68.81
2022-09-06T08:33:25.377Z,71.19
2022-09-06T08:35:56.502Z,66.12
2022-09-06T08:38:23.142Z,64.69
2022-09-06T08:40:50.881Z,65.46
2022-09-06T08:43:18.264Z,63.51
2022-09-06T08:45:45.583Z,66.68
2022-09-06T08:48:12.800Z,68.49
2022-09-06T08:50:43.573Z,66.94
2022-09-06T08:53:17.816Z,65.37
2022-09-06T08:55:47.610Z,67.51
2022-09-06T08:58:26.086Z,65.86
2022-09-06T09:00:58.595Z,65.98
2022-09-06T09:03:31.225Z,63.10
2022-09-06T09:05:59.929Z,62.51
2022-09-06T09:08:32.657Z,59.80
2022-09-06T09:10:59.195Z,60.44
2022-09-06T09:13:44.132Z,59.68
2022-09-06T09:16:10.814Z,60.73
2022-09-06T09:18:39.791Z,62.23
2022-09-06T09:21:06.387Z,60.46
2022-09-06T09:23:33.074Z,57.85
2022-09-06T09:26:02.290Z,54.13
2022-09-06T09:28:28.975Z,53.08
2022-09-06T09:30:56.570Z,52.86
2022-09-06T09:33:26.282Z,51.72
2022-09-06T09:35:53.356Z,54.17
2022-09-06T09:38:21.537Z,53.17
2022-09-06T09:40:51.069Z,54.57
2022-09-06T09:43:20.401Z,54.54
2022-09-06T09:45:57.092Z,50.23
2022-09-06T09:48:27.558Z,51.44
2022-09-06T09:50:55.662Z,51.51
2022-09-06T09:53:23.513Z,52.09
2022-09-06T09:55:55.743Z,50.64
2022-09-06T09:58:22.329Z,49.96
2022-09-06T10:01:08.565Z,50.16
2022-09-06T10:03:35.264Z,48.28
2022-09-06T10:06:02.645Z,54.84
2022-09-06T10:08:32.316Z,51.07
2022-09-06T10:10:58.909Z,49.24
2022-09-06T10:13:29.674Z,47.86
2022-09-06T10:15:58.671Z,52.98
2022-09-06T10:18:33.111Z,47.07
2022-09-06T10:21:01.639Z,48.03
2022-09-06T10:26:20.848Z,49.71
2022-09-06T10:28:47.470Z,47.57
2022-09-06T10:31:33.607Z,46.09
2022-09-06T10:34:18.561Z,45.08
2022-09-06T10:36:58.977Z,50.27
2022-09-06T10:39:35.267Z,52.18
2022-09-06T10:42:21.982Z,49.31
2022-09-06T10:44:57.191Z,42.55
2022-09-06T10:47:29.683Z,48.25
2022-09-06T10:49:57.835Z,43.59
2022-09-06T10:52:32.126Z,45.89
2022-09-06T10:55:03.883Z,47.38
2022-09-06T11:00:23.192Z,47.07
2022-09-06T11:05:44.325Z,39.67
2022-09-06T11:11:06.777Z,44.45
2022-09-06T11:13:33.358Z,42.71
2022-09-06T11:16:07.101Z,43.17
2022-09-06T11:18:42.526Z,42.08
2022-09-06T11:21:18.876Z,41.51
2022-09-06T11:23:52.349Z,42.35
2022-09-06T11:26:34.588Z,42.35
2022-09-06T11:29:03.113Z,43.39
2022-09-06T11:34:28.230Z,41.14
2022-09-06T11:36:56.618Z,46.58
2022-09-06T11:42:34.052Z,41.20
2022-09-06T11:45:06.697Z,41.00
2022-09-06T11:47:39.293Z,42.67
2022-09-06T11:50:20.979Z,48.24
2022-09-06T11:52:59.279Z,44.28
2022-09-06T11:55:46.136Z,43.42
2022-09-06T11:58:18.794Z,43.78
2022-09-06T12:00:46.393Z,42.70
2022-09-06T12:06:19.114Z,41.88
2022-09-06T12:08:46.593Z,42.72
2022-09-06T12:11:31.404Z,41.86
2022-09-06T12:14:03.031Z,41.83
2022-09-06T12:16:48.329Z,43.37
2022-09-06T12:19:33.497Z,41.52
2022-09-06T12:22:00.038Z,42.24
2022-09-06T12:24:35.810Z,44.81
2022-09-06T12:27:18.571Z,44.88
2022-09-06T12:30:05.958Z,47.36
2022-09-06T12:32:46.848Z,48.63
2022-09-06T12:38:07.703Z,45.95
2022-09-06T12:40:37.933Z,45.12
2022-09-06T12:43:05.030Z,44.82
2022-09-06T12:45:31.824Z,47.50
2022-09-06T12:48:09.457Z,44.21
2022-09-06T12:50:36.299Z,43.54
2022-09-06T12:53:04.347Z,42.63
2022-09-06T12:55:37.689Z,42.72
2022-09-06T12:58:05.493Z,41.24
2022-09-06T13:00:47.017Z,43.05
2022-09-06T13:03:25.787Z,45.18
2022-09-06T13:05:53.134Z,47.96
2022-09-06T13:08:25.940Z,46.26
2022-09-06T13:10:53.304Z,45.57
2022-09-06T13:13:22.339Z,45.21
2022-09-06T13:15:49.123Z,45.83
2022-09-06T13:18:20.601Z,45.62
2022-09-06T13:20:57.578Z,47.74
2022-09-06T13:23:24.165Z,48.16
2022-09-06T13:25:54.191Z,47.62
2022-09-06T13:28:24.340Z,44.17
2022-09-06T13:31:03.463Z,43.38
2022-09-06T13:33:30.134Z,43.90
2022-09-06T13:36:12.004Z,45.74
2022-09-06T13:38:38.575Z,46.32
2022-09-06T13:41:12.534Z,46.53
2022-09-06T13:43:45.809Z,47.22
2022-09-06T13:46:12.531Z,48.28
2022-09-06T13:48:44.524Z,48.14
2022-09-06T13:51:11.574Z,44.75
2022-09-06T13:53:38.045Z,45.05
2022-09-06T13:56:08.695Z,44.23
2022-09-06T13:58:36.017Z,41.83
2022-09-06T14:01:02.625Z,41.62
2022-09-06T14:03:31.087Z,41.53
2022-09-06T14:05:57.851Z,41.22
2022-09-06T14:08:24.480Z,41.85
2022-09-06T14:10:51.338Z,43.00
2022-09-06T14:13:18.443Z,43.05
2022-09-06T14:15:45.601Z,42.91
2022-09-06T14:18:14.468Z,44.43
2022-09-06T14:20:41.857Z,45.29
2022-09-06T14:23:08.894Z,45.77
2022-09-06T14:25:36.258Z,45.94
2022-09-06T14:28:03.574Z,46.32
2022-09-06T14:30:30.544Z,47.10
2022-09-06T14:32:57.030Z,49.98
2022-09-06T14:35:23.510Z,48.63
2022-09-06T14:37:50.142Z,50.24
2022-09-06T14:40:26.265Z,49.87
2022-09-06T14:42:52.820Z,51.31
2022-09-06T14:45:19.932Z,52.61
2022-09-06T14:47:46.448Z,51.11
2022-09-06T14:50:13.015Z,51.73
2022-09-06T14:52:39.574Z,52.36
2022-09-06T14:55:06.274Z,51.94
2022-09-06T14:57:32.795Z,52.65
2022-09-06T15:00:00.654Z,49.54
2022-09-06T15:02:28.933Z,51.10
2022-09-06T15:04:55.765Z,53.21
2022-09-06T15:07:22.396Z,51.71
2022-09-06T15:09:51.040Z,53.04
2022-09-06T15:12:18.062Z,52.66
2022-09-06T15:14:44.701Z,52.56
2022-09-06T15:17:11.360Z,53.60
2022-09-06T15:19:38.377Z,53.62
2022-09-06T15:22:05.874Z,55.18
2022-09-06T15:24:32.819Z,55.48
2022-09-06T15:27:00.141Z,54.00
2022-09-06T15:29:29.598Z,54.86
2022-09-06T15:31:56.271Z,54.36
2022-09-06T15:34:24.241Z,54.24
2022-09-06T15:36:51.526Z,54.16
2022-09-06T15:39:18.535Z,53.08
2022-09-06T15:41:45.213Z,55.37
2022-09-06T15:44:16.010Z,55.98
2022-09-06T15:47:00.673Z,57.07
2022-09-06T15:49:28.803Z,56.36
2022-09-06T15:51:56.506Z,56.65
2022-09-06T15:54:41.681Z,57.58
2022-09-06T15:57:08.278Z,61.33
2022-09-06T15:59:34.796Z,64.32
2022-09-06T16:02:01.762Z,64.32
2022-09-06T16:04:28.315Z,65.86
2022-09-06T16:06:56.701Z,67.86
2022-09-06T16:09:23.372Z,69.18
2022-09-06T16:11:50.069Z,70.64
2022-09-06T16:14:16.617Z,70.49
2022-09-06T16:16:43.450Z,69.79
2022-09-06T16:19:11.183Z,69.56
2022-09-06T16:21:39.032Z,67.58
2022-09-06T16:24:06.590Z,63.13
2022-09-06T16:26:34.592Z,60.44
2022-09-06T16:29:01.898Z,59.97
2022-09-06T16:31:28.999Z,60.19
2022-09-06T16:33:57.353Z,60.70
2022-09-06T16:36:24.815Z,61.38
2022-09-06T16:38:51.513Z,59.88
2022-09-06T16:41:22.621Z,59.89
2022-09-06T16:43:49.324Z,58.61
2022-09-06T16:46:16.619Z,58.98
2022-09-06T16:48:43.700Z,58.39
2022-09-06T16:51:15.047Z,57.61
2022-09-06T16:53:42.839Z,59.58
2022-09-06T16:56:10.147Z,59.62
2022-09-06T16:58:36.938Z,60.42
2022-09-06T17:01:03.513Z,60.63
2022-09-06T17:03:30.339Z,60.68
2022-09-06T17:05:56.947Z,61.70
2022-09-06T17:08:23.584Z,59.03
2022-09-06T17:10:50.290Z,60.84
2022-09-06T17:13:16.815Z,61.42
2022-09-06T17:16:10.735Z,61.78
2022-09-06T17:18:37.489Z,63.75
2022-09-06T17:21:08.131Z,63.63
2022-09-06T17:23:35.250Z,64.12
2022-09-06T17:26:01.846Z,62.99
2022-09-06T17:28:28.738Z,64.01
2022-09-06T17:30:55.470Z,65.37
2022-09-06T17:33:23.656Z,65.94
2022-09-06T17:35:50.207Z,66.01
2022-09-06T17:38:16.784Z,65.05
2022-09-06T17:40:43.565Z,66.90
2022-09-06T17:43:10.138Z,66.88
2022-09-06T17:45:38.003Z,67.60
2022-09-06T17:48:05.058Z,66.92
2022-09-06T17:50:32.353Z,66.65
2022-09-06T17:52:59.643Z,66.49
2022-09-06T17:55:28.881Z,65.92
2022-09-06T17:57:58.717Z,65.26
2022-09-06T18:00:26.224Z,65.49
2022-09-06T18:02:52.922Z,67.34
2022-09-06T18:05:19.511Z,69.03
2022-09-06T18:07:46.153Z,69.97
2022-09-06T18:10:15.057Z,69.84
2022-09-06T18:12:42.143Z,78.30
2022-09-06T18:15:08.931Z,80.25
2022-09-06T18:17:35.510Z,84.42
2022-09-06T18:20:02.698Z,85.44
2022-09-06T18:22:29.658Z,85.03
2022-09-06T18:24:58.312Z,86.97
2022-09-06T18:27:25.806Z,89.63
2022-09-06T18:29:52.423Z,95.13
2022-09-06T18:32:18.997Z,98.85
2022-09-06T18:34:45.535Z,93.19
2022-09-06T18:37:12.165Z,93.59
2022-09-06T18:39:39.567Z,98.95
2022-09-06T18:42:11.127Z,98.03
2022-09-06T18:44:38.262Z,95.12
2022-09-06T18:47:06.697Z,96.69
2022-09-06T18:49:33.822Z,100.00
2022-09-06T18:52:04.002Z,100.00
2022-09-06T18:54:30.667Z,100.00
2022-09-06T18:56:57.281Z,100.00
2022-09-06T18:59:24.016Z,100.00
2022-09-06T19:01:50.641Z,100.00
2022-09-06T19:04:17.313Z,100.00
2022-09-06T19:06:44.627Z,100.00
2022-09-06T19:09:12.755Z,100.00
2022-09-06T19:11:41.631Z,100.00
2022-09-06T19:14:08.197Z,100.00
2022-09-06T19:16:35.109Z,100.00
2022-09-06T19:19:02.896Z,100.00
2022-09-06T19:21:29.449Z,100.00
2022-09-06T19:24:00.502Z,100.00
2022-09-06T19:26:28.110Z,100.00
2022-09-06T19:28:55.894Z,100.00
2022-09-06T19:31:23.235Z,100.00
2022-09-06T19:33:50.773Z,100.00
2022-09-06T19:36:18.137Z,100.00
2022-09-06T19:39:02.396Z,100.00
2022-09-06T19:41:30.079Z,100.00
2022-09-06T19:43:57.366Z,100.00
2022-09-06T19:46:24.422Z,100.00
2022-09-06T19:48:51.926Z,100.00
2022-09-06T19:51:19.013Z,100.00
2022-09-06T19:53:57.651Z,100.00
2022-09-06T19:56:26.052Z,100.00
2022-09-06T19:58:53.810Z,100.00
2022-09-06T20:01:20.500Z,100.00
2022-09-06T20:03:47.297Z,100.00
2022-09-06T20:06:13.840Z,100.00
2022-09-06T20:08:40.410Z,100.00
2022-09-06T20:11:07.892Z,100.00
2022-09-06T20:13:35.246Z,100.00
2022-09-06T20:16:05.842Z,100.00
2022-09-06T20:18:33.566Z,100.00
2022-09-06T20:21:00.189Z,100.00
2022-09-06T20:23:30.276Z,100.00
2022-09-06T20:26:05.124Z,100.00
2022-09-06T20:28:32.346Z,100.00
2022-09-06T20:31:00.826Z,100.00
2022-09-06T20:33:27.369Z,100.00
2022-09-06T20:36:03.751Z,100.00
2022-09-06T20:38:35.016Z,100.00
2022-09-06T20:41:06.109Z,100.00
2022-09-06T20:43:35.175Z,100.00
2022-09-06T20:46:04.294Z,100.00
2022-09-06T20:48:32.597Z,100.00
2022-09-06T20:51:00.414Z,100.00
2022-09-06T20:53:26.977Z,100.00
2022-09-06T20:56:00.990Z,100.00
2022-09-06T20:58:28.075Z,100.00
2022-09-06T21:00:55.124Z,100.00
2022-09-06T21:03:21.704Z,100.00
2022-09-06T21:05:48.795Z,100.00
2022-09-06T21:08:15.622Z,100.00
2022-09-06T21:10:42.931Z,100.00
2022-09-06T21:13:10.034Z,100.00
2022-09-06T21:15:37.127Z,100.00
2022-09-06T21:18:04.634Z,100.00
2022-09-06T21:20:31.796Z,100.00
2022-09-06T21:22:58.338Z,100.00
2022-09-06T21:25:24.922Z,100.00
2022-09-06T21:27:55.550Z,100.00
2022-09-06T21:30:22.403Z,100.00
2022-09-06T21:32:49.119Z,100.00
2022-09-06T21:35:15.719Z,100.00
2022-09-06T21:37:42.281Z,100.00
2022-09-06T21:40:09.254Z,100.00
2022-09-06T21:42:35.826Z,100.00
2022-09-06T21:45:02.374Z,100.00
2022-09-06T21:47:29.593Z,100.00
2022-09-06T21:49:56.100Z,100.00
2022-09-06T21:52:23.338Z,100.00
2022-09-06T21:54:49.894Z,100.00
2022-09-06T21:57:17.133Z,100.00
2022-09-06T21:59:43.661Z,100.00
2022-09-06T22:02:10.546Z,100.00
2022-09-06T22:04:37.874Z,100.00
2022-09-06T22:07:04.460Z,100.00
2022-09-06T22:09:30.983Z,100.00
2022-09-06T22:11:57.547Z,100.00
2022-09-06T22:14:24.227Z,100.00
2022-09-06T22:16:52.006Z,100.00
2022-09-06T22:19:18.636Z,100.00
2022-09-06T22:21:45.471Z,100.00
2022-09-06T22:24:12.760Z,100.00
2022-09-06T22:26:40.191Z,100.00
2022-09-06T22:29:07.946Z,100.00
2022-09-06T22:31:34.937Z,100.00
2022-09-06T22:34:01.602Z,100.00
2022-09-06T22:36:28.438Z,100.00
2022-09-06T22:38:58.610Z,100.00
2022-09-06T22:41:25.985Z,100.00
2022-09-06T22:43:52.531Z,100.00
2022-09-06T22:46:19.251Z,100.00
2022-09-06T22:48:45.874Z,100.00
2022-09-06T22:51:12.482Z,100.00
2022-09-06T22:53:39.370Z,100.00
2022-09-06T22:56:06.442Z,100.00
2022-09-06T22:58:33.530Z,100.00
2022-09-06T23:01:05.528Z,100.00
2022-09-06T23:03:32.217Z,100.00
2022-09-06T23:06:02.636Z,100.00
2022-09-06T23:08:29.732Z,100.00
2022-09-06T23:10:56.371Z,100.00
2022-09-06T23:13:22.901Z,100.00
2022-09-06T23:15:49.458Z,100.00
2022-09-06T23:18:16.204Z,100.00
2022-09-06T23:20:42.790Z,100.00
2022-09-06T23:23:09.375Z,100.00
2022-09-06T23:25:39.142Z,100.00
2022-09-06T23:28:05.860Z,100.00
2022-09-06T23:30:32.457Z,100.00
2022-09-06T23:32:59.064Z,100.00
2022-09-06T23:35:25.689Z,100.00
2022-09-06T23:37:53.790Z,100.00
2022-09-06T23:40:20.501Z,100.00
2022-09-06T23:42:47.148Z,100.00
2022-09-06T23:45:13.828Z,100.00
2022-09-06T23:47:41.145Z,100.00
2022-09-06T23:50:07.856Z,100.00
2022-09-06T23:52:34.378Z,100.00
2022-09-06T23:55:01.054Z,100.00
2022-09-06T23:57:27.594Z,100.00
2022-09-06T23:59:54.109Z,100.00
